createdAt,value
2023-01-31T09:02:27.046Z,37.50
2023-01-31T09:04:56.125Z,38.70
2023-01-31T09:07:25.472Z,45.90
2023-01-31T09:09:55.714Z,36.77
2023-01-31T09:12:24.557Z,42.55
2023-01-31T09:14:54.570Z,44.85
2023-01-31T09:17:23.138Z,39.80
2023-01-31T09:19:52.528Z,34.40
2023-01-31T09:22:22.450Z,39.98
2023-01-31T09:24:51.074Z,40.33
2023-01-31T09:27:19.606Z,37.73
2023-01-31T09:29:49.151Z,32.30
2023-01-31T09:32:19.869Z,38.33
2023-01-31T09:34:51.347Z,35.85
2023-01-31T09:37:20.479Z,37.15
2023-01-31T09:39:48.982Z,44.88
2023-01-31T09:42:25.454Z,39.35
2023-01-31T09:45:05.352Z,34.15
2023-01-31T09:47:39.054Z,38.70
2023-01-31T09:50:36.719Z,36.20
2023-01-31T09:53:15.065Z,35.35
2023-01-31T09:59:16.171Z,36.63
2023-01-31T10:02:05.395Z,30.68
2023-01-31T10:04:53.063Z,35.35
2023-01-31T10:07:31.843Z,28.87
2023-01-31T10:10:38.640Z,34.20
2023-01-31T10:13:31.535Z,34.35
2023-01-31T10:16:35.659Z,34.98
2023-01-31T10:19:08.767Z,34.58
2023-01-31T10:21:47.422Z,32.75
2023-01-31T10:24:40.715Z,34.78
2023-01-31T10:27:42.834Z,35.68
2023-01-31T10:30:19.735Z,32.50
2023-01-31T10:33:07.767Z,34.85
2023-01-31T10:35:41.923Z,34.90
2023-01-31T10:38:25.397Z,34.60
2023-01-31T10:41:15.759Z,34.83
2023-01-31T10:43:55.725Z,38.23
2023-01-31T10:46:24.604Z,35.08
2023-01-31T10:48:53.535Z,29.85
2023-01-31T10:51:46.321Z,30.77
2023-01-31T10:54:24.191Z,32.70
2023-01-31T10:59:33.001Z,36.30
2023-01-31T11:02:02.890Z,33.85
2023-01-31T11:04:43.892Z,32.35
2023-01-31T11:07:13.817Z,33.15
2023-01-31T11:09:54.012Z,31.40
2023-01-31T11:12:24.832Z,29.82
2023-01-31T11:15:16.538Z,27.80
2023-01-31T11:17:46.341Z,29.77
2023-01-31T11:20:34.645Z,36.03
2023-01-31T11:23:05.019Z,35.95
2023-01-31T11:25:34.717Z,39.15
2023-01-31T11:28:07.499Z,31.75
2023-01-31T11:30:40.213Z,32.40
2023-01-31T11:33:14.203Z,30.85
2023-01-31T11:35:42.871Z,34.10
2023-01-31T11:38:22.757Z,32.78
2023-01-31T11:40:52.012Z,28.23
2023-01-31T11:43:24.874Z,31.30
2023-01-31T11:46:02.770Z,32.42
2023-01-31T11:48:43.584Z,33.08
2023-01-31T11:51:17.587Z,31.45
2023-01-31T11:53:49.714Z,36.23
2023-01-31T11:56:27.174Z,31.90
2023-01-31T11:58:58.286Z,31.07
2023-01-31T12:01:27.689Z,29.95
2023-01-31T12:04:03.632Z,32.83
2023-01-31T12:06:37.018Z,30.85
2023-01-31T12:09:23.439Z,28.90
2023-01-31T12:12:06.417Z,29.05
2023-01-31T12:14:41.932Z,31.70
2023-01-31T12:17:13.807Z,34.85
2023-01-31T12:20:25.478Z,31.95
2023-01-31T12:22:48.765Z,34.83
2023-01-31T12:25:53.405Z,33.10
2023-01-31T12:28:39.415Z,33.33
2023-01-31T12:31:31.435Z,34.25
2023-01-31T12:34:20.870Z,32.48
2023-01-31T12:37:21.536Z,31.17
2023-01-31T12:40:35.609Z,28.35
2023-01-31T12:43:06.323Z,31.73
2023-01-31T12:45:52.240Z,30.60
2023-01-31T12:48:49.535Z,31.30
2023-01-31T12:51:38.711Z,33.47
2023-01-31T12:54:27.863Z,33.45
2023-01-31T12:57:13.527Z,35.28
2023-01-31T13:00:03.216Z,32.98
2023-01-31T13:02:43.176Z,30.62
2023-01-31T13:05:43.557Z,32.70
2023-01-31T13:08:21.660Z,35.03
2023-01-31T15:52:56.385Z,35.00
2023-01-31T15:55:25.708Z,43.60
2023-01-31T15:57:57.800Z,35.50
2023-01-31T16:00:36.978Z,36.98
2023-01-31T16:03:13.836Z,35.78
2023-01-31T16:05:50.056Z,29.57
2023-01-31T16:08:29.066Z,27.93
2023-01-31T16:10:57.772Z,28.60
2023-01-31T16:13:27.836Z,29.42
2023-01-31T16:15:56.755Z,29.65
2023-01-31T16:18:26.027Z,33.58
2023-01-31T16:20:55.516Z,30.12
2023-01-31T16:23:34.380Z,31.48
2023-01-31T16:26:24.906Z,31.12
2023-01-31T16:29:00.904Z,26.27
2023-01-31T16:31:33.892Z,27.52
2023-01-31T16:34:06.020Z,29.60
2023-01-31T16:36:54.355Z,27.17
2023-01-31T16:39:37.326Z,21.53
2023-01-31T16:42:11.200Z,26.55
2023-01-31T16:44:42.185Z,25.30
2023-01-31T16:47:47.592Z,26.77
2023-01-31T16:50:41.818Z,28.70
2023-01-31T16:53:32.438Z,26.02
2023-01-31T16:56:21.110Z,25.62
2023-01-31T16:58:57.666Z,23.55
2023-01-31T17:01:33.854Z,25.70
2023-01-31T17:04:13.805Z,27.13
2023-01-31T17:06:44.017Z,23.05
2023-01-31T17:09:18.660Z,23.10
2023-01-31T17:11:48.776Z,22.52
2023-01-31T17:14:19.015Z,26.65
2023-01-31T17:16:53.286Z,23.20
2023-01-31T17:19:23.822Z,26.52
2023-01-31T17:21:54.534Z,24.43
2023-01-31T17:24:23.959Z,23.80
2023-01-31T17:26:55.626Z,22.37
2023-01-31T17:29:25.770Z,18.85
2023-01-31T17:31:55.379Z,22.82
2023-01-31T17:34:25.554Z,23.05
2023-01-31T17:36:55.515Z,20.80
2023-01-31T17:39:29.595Z,20.75
2023-01-31T17:41:59.467Z,24.20
2023-01-31T17:44:28.682Z,21.25
2023-01-31T17:46:58.665Z,23.52
2023-01-31T17:49:29.233Z,25.75
2023-01-31T17:51:59.128Z,26.93
2023-01-31T17:54:29.088Z,22.30
2023-01-31T17:56:58.593Z,21.70
2023-01-31T17:59:28.255Z,22.25
2023-01-31T18:01:57.324Z,22.32
2023-01-31T18:04:27.379Z,26.33
2023-01-31T18:06:57.565Z,24.60
2023-01-31T18:09:26.835Z,23.35
2023-01-31T18:11:56.973Z,21.27
2023-01-31T18:14:27.137Z,21.57
2023-01-31T18:16:57.981Z,20.60
2023-01-31T18:19:28.337Z,22.50
2023-01-31T18:21:58.718Z,21.82
2023-01-31T18:24:27.713Z,22.93
2023-01-31T18:26:57.547Z,27.40
2023-01-31T18:29:27.084Z,20.95
2023-01-31T18:31:57.984Z,24.82
2023-01-31T18:34:30.916Z,21.07
2023-01-31T18:37:00.484Z,20.05
2023-01-31T18:39:30.416Z,21.93
2023-01-31T18:42:00.151Z,20.48
2023-01-31T18:44:29.510Z,24.92
2023-01-31T18:46:58.788Z,25.80
2023-01-31T18:49:28.423Z,20.50
2023-01-31T18:52:00.034Z,19.52
2023-01-31T18:54:30.866Z,20.27
2023-01-31T18:57:00.399Z,21.62
2023-01-31T18:59:29.761Z,24.55
2023-01-31T19:01:58.745Z,21.48
2023-01-31T19:04:30.509Z,21.85
2023-01-31T19:07:00.614Z,20.23
2023-01-31T19:09:30.054Z,16.95
2023-01-31T19:12:01.465Z,15.25
2023-01-31T19:14:31.356Z,18.10
2023-01-31T19:17:00.672Z,22.42
2023-01-31T19:19:29.846Z,17.42
2023-01-31T19:21:58.723Z,21.07
2023-01-31T19:24:28.447Z,20.85
2023-01-31T19:26:59.270Z,18.92
2023-01-31T19:29:29.320Z,17.30
2023-01-31T19:31:58.934Z,19.20
2023-01-31T19:34:29.016Z,21.33
2023-01-31T19:37:00.043Z,16.97
2023-01-31T19:39:29.856Z,22.22
2023-01-31T19:41:59.391Z,19.42
2023-01-31T19:44:28.615Z,20.05
2023-01-31T19:46:58.011Z,17.12
2023-01-31T19:49:30.196Z,19.62
2023-01-31T19:52:00.921Z,22.40
2023-01-31T19:54:29.971Z,17.75
2023-01-31T19:56:59.020Z,17.12
2023-01-31T19:59:28.900Z,19.02
2023-01-31T20:01:58.770Z,21.85
2023-01-31T20:04:29.967Z,19.32
2023-01-31T20:07:01.019Z,15.55
2023-01-31T20:09:31.615Z,15.95
2023-01-31T20:12:02.522Z,20.23
2023-01-31T20:14:32.210Z,16.67
2023-01-31T20:17:01.583Z,13.10
2023-01-31T20:19:32.219Z,15.23
2023-01-31T20:22:02.040Z,12.85
2023-01-31T20:24:31.680Z,15.72
2023-01-31T20:27:01.482Z,13.45
2023-01-31T20:29:31.322Z,16.75
2023-01-31T20:32:01.666Z,16.12
2023-01-31T20:34:34.178Z,15.35
2023-01-31T20:37:05.165Z,13.72
2023-01-31T20:39:34.260Z,14.63
2023-01-31T20:42:03.499Z,17.67
2023-01-31T20:44:34.653Z,14.50
2023-01-31T20:47:04.622Z,14.58
2023-01-31T20:49:34.248Z,14.58
2023-01-31T20:52:03.752Z,14.07
2023-01-31T20:54:34.224Z,14.73
2023-01-31T20:57:03.958Z,14.43
2023-01-31T20:59:33.825Z,10.63
2023-01-31T21:02:03.304Z,11.33
2023-01-31T21:04:32.585Z,11.83
2023-01-31T21:07:03.471Z,13.13
2023-01-31T21:09:34.476Z,10.28
2023-01-31T21:12:07.245Z,12.82
2023-01-31T21:14:38.360Z,13.50
2023-01-31T21:17:07.281Z,14.70
2023-01-31T21:19:37.048Z,11.83
2023-01-31T21:22:06.210Z,12.43
2023-01-31T21:24:36.923Z,12.00
2023-01-31T21:27:08.484Z,8.68
2023-01-31T21:29:41.212Z,9.00
2023-01-31T21:32:10.476Z,9.60
2023-01-31T21:34:41.628Z,8.18
2023-01-31T21:37:11.075Z,10.45
2023-01-31T21:39:41.672Z,8.95
2023-01-31T21:42:13.727Z,9.48
2023-01-31T21:44:43.989Z,7.65
2023-01-31T21:47:14.549Z,10.00
2023-01-31T21:49:43.578Z,12.80
2023-01-31T21:52:13.646Z,9.95
2023-01-31T21:54:43.211Z,9.58
2023-01-31T21:57:12.741Z,9.85
2023-01-31T21:59:45.249Z,10.58
2023-01-31T22:02:15.402Z,7.90
2023-01-31T22:04:44.836Z,7.72
